Time;durP1;ratioP1;P1;durP2;ratioP2;P2;SDS_P1;SDS_P2;PMS_P1;PMS_P2;Temp;Humidity;BMP_temperature;BMP_pressure;BME280_temperature;BME280_humidity;BME280_pressure;Samples;Min_cycle;Max_cycle;Signal;HPM_P1;HPM_P2
2022/09/24 00:13:24;;;;;;;23.00;12.90;;;;;;;9.17;93.61;100497.33;656310;1280;140549;-87
2022/09/24 00:28:29;;;;;;;19.00;10.90;;;;;;;9.00;94.62;100488.17;656572;1280;139851;-88
2022/09/24 00:43:37;;;;;;;15.70;7.80;;;;;;;8.80;94.53;100474.17;657026;1281;140375;-89
2022/09/24 00:58:46;;;;;;;13.40;7.10;;;;;;;8.65;94.46;100458.95;656101;1281;139963;-87
2022/09/24 01:14:30;;;;;;;15.50;8.20;;;;;;;8.46;94.76;100453.76;655925;1280;140211;-89
2022/09/24 01:29:33;;;;;;;18.40;10.50;;;;;;;8.28;94.54;100444.98;655602;1281;139697;-89
2022/09/24 01:44:43;;;;;;;26.60;11.30;;;;;;;8.18;94.67;100445.09;657361;1281;140549;-87
2022/09/24 02:00:05;;;;;;;17.40;8.90;;;;;;;8.09;94.69;100426.75;656496;1280;140426;-90
2022/09/24 02:15:19;;;;;;;17.20;8.70;;;;;;;7.95;94.71;100428.15;656174;1280;139113;-88
2022/09/24 02:30:23;;;;;;;21.40;9.80;;;;;;;7.89;94.74;100426.30;656460;1281;139689;-87
2022/09/24 02:45:26;;;;;;;17.00;10.80;;;;;;;7.74;95.04;100422.73;656091;1280;138293;-89
2022/09/24 03:00:30;;;;;;;19.80;10.90;;;;;;;7.58;96.79;100414.80;656124;1281;138830;-87
2022/09/24 03:15:33;;;;;;;21.40;11.20;;;;;;;7.44;97.21;100417.75;656403;1280;139861;-88
2022/09/24 03:45:58;;;;;;;175.40;42.20;;;;;;;7.48;97.53;100408.45;658666;1277;139947;-89
2022/09/24 04:01:03;;;;;;;203.60;55.30;;;;;;;7.46;97.33;100398.96;658326;1277;138926;-88
2022/09/24 04:16:06;;;;;;;51.40;20.00;;;;;;;7.54;97.81;100406.78;658705;1277;140742;-87
2022/09/24 04:31:09;;;;;;;34.40;15.10;;;;;;;7.53;97.53;100408.91;659663;1277;140268;-88
2022/09/24 04:46:13;;;;;;;24.70;13.80;;;;;;;7.57;98.07;100400.79;659458;1277;140120;-89
2022/09/24 05:01:19;;;;;;;30.30;14.30;;;;;;;7.68;98.37;100405.77;659537;1277;141472;-88
2022/09/24 05:16:22;;;;;;;33.00;17.30;;;;;;;7.82;98.07;100400.18;659080;1277;138695;-88
2022/09/24 05:31:25;;;;;;;30.00;15.30;;;;;;;7.98;98.59;100402.12;661215;1276;139981;-89
2022/09/24 05:46:29;;;;;;;29.00;15.90;;;;;;;8.25;99.00;100399.05;660602;1277;140442;-87
2022/09/24 06:01:33;;;;;;;40.60;20.60;;;;;;;8.55;99.13;100398.04;660720;1277;140365;-88
2022/09/24 06:16:37;;;;;;;112.80;66.60;;;;;;;8.78;99.31;100403.02;660840;1277;140660;-89
2022/09/24 06:31:40;;;;;;;40.80;22.70;;;;;;;9.25;99.37;100402.48;661655;1277;139818;-90
2022/09/24 06:46:45;;;;;;;114.70;50.80;;;;;;;9.71;99.61;100404.45;661691;1277;141429;-88
2022/09/24 07:01:48;;;;;;;104.20;54.80;;;;;;;10.76;99.59;100400.30;660882;1277;139330;-90
2022/09/24 07:16:52;;;;;;;70.70;37.90;;;;;;;12.21;98.99;100401.84;663922;1277;141415;-88
2022/09/24 07:31:56;;;;;;;167.20;53.30;;;;;;;13.32;98.38;100412.02;666805;1276;142354;-88
2022/09/24 07:46:59;;;;;;;19.10;11.30;;;;;;;14.20;96.02;100418.60;663693;1277;140371;-92
2022/09/24 08:02:06;;;;;;;228.30;67.50;;;;;;;15.56;93.90;100414.29;660531;1277;139649;-85
2022/09/24 08:17:09;;;;;;;35.30;15.40;;;;;;;16.37;90.39;100416.69;662059;1277;140266;-88
2022/09/24 08:32:13;;;;;;;44.00;16.60;;;;;;;17.65;86.72;100424.92;664005;1277;140104;-90
2022/09/24 08:47:42;;;;;;;17.00;10.20;;;;;;;19.05;80.78;100423.24;663439;1277;140408;-92
2022/09/24 09:03:03;;;;;;;13.10;6.60;;;;;;;20.21;73.90;100419.60;664293;1277;141360;-90
2022/09/24 09:18:15;;;;;;;40.00;22.00;;;;;;;20.53;66.65;100414.72;665475;1276;139272;-92
2022/09/24 09:33:31;;;;;;;4.70;3.20;;;;;;;20.57;63.63;100407.27;664690;1277;139931;-89
2022/09/24 09:49:06;;;;;;;4.90;2.70;;;;;;;20.23;59.93;100408.45;663929;1276;139593;-92
2022/09/24 10:04:29;;;;;;;4.70;3.60;;;;;;;20.45;58.15;100404.70;665491;1277;138479;-91
2022/09/24 10:19:35;;;;;;;4.00;2.90;;;;;;;20.60;56.96;100407.09;665475;1276;139208;-90
2022/09/24 10:34:39;;;;;;;10.40;4.60;;;;;;;20.98;56.60;100406.83;664547;1277;139886;-90
2022/09/24 10:49:54;;;;;;;4.50;2.50;;;;;;;21.55;56.54;100403.33;661459;1277;139756;-89
2022/09/24 11:05:11;;;;;;;5.40;2.90;;;;;;;21.52;54.47;100394.81;659684;1277;138529;-91
2022/09/24 11:20:23;;;;;;;4.00;2.80;;;;;;;21.22;54.44;100384.29;660475;1277;138255;-87
2022/09/24 11:35:45;;;;;;;3.30;2.00;;;;;;;21.65;53.08;100375.06;659446;1277;914836;-87
2022/09/24 11:51:03;;;;;;;2.60;1.80;;;;;;;21.71;50.92;100371.31;662212;1277;139487;-91
2022/09/24 12:06:30;;;;;;;4.80;2.00;;;;;;;22.01;49.63;100367.71;663704;1277;139191;-90
2022/09/24 12:21:39;;;;;;;3.00;1.90;;;;;;;21.76;48.51;100357.55;661284;1277;138689;-89
2022/09/24 12:36:58;;;;;;;5.40;3.20;;;;;;;21.95;48.57;100351.97;661350;1277;139636;-88
2022/09/24 12:52:17;;;;;;;5.10;4.00;;;;;;;21.27;50.02;100340.29;661691;1277;138902;-87
2022/09/24 13:07:38;;;;;;;3.40;2.10;;;;;;;21.15;50.36;100330.92;661393;1277;138440;-88
2022/09/24 13:22:42;;;;;;;5.80;2.70;;;;;;;21.10;49.66;100325.96;664569;1277;138240;-89
2022/09/24 13:38:26;;;;;;;9.40;6.50;;;;;;;21.22;50.50;100320.48;661069;1277;139037;-89
2022/09/24 13:53:32;;;;;;;8.10;3.00;;;;;;;20.88;50.63;100309.27;660731;1277;138246;-87
2022/09/24 14:08:37;;;;;;;7.90;4.20;;;;;;;20.02;52.05;100312.16;660499;1277;138038;-88
2022/09/24 14:24:01;;;;;;;4.80;3.40;;;;;;;19.47;53.22;100301.32;662884;1277;140117;-89
2022/09/24 14:39:05;;;;;;;4.90;3.30;;;;;;;19.49;53.48;100301.10;660402;1277;141907;-89
2022/09/24 14:54:36;;;;;;;6.50;3.40;;;;;;;20.51;53.43;100296.98;659499;1277;141294;-89
2022/09/24 15:09:39;;;;;;;13.00;10.30;;;;;;;21.76;52.00;100303.30;661940;1279;139778;-89
2022/09/24 15:24:43;;;;;;;17.50;13.10;;;;;;;22.06;52.22;100299.64;660769;1277;140722;-88
2022/09/24 15:39:48;;;;;;;14.80;8.90;;;;;;;20.64;52.79;100287.45;661709;1277;140970;-90
2022/09/24 15:54:55;;;;;;;79.80;45.20;;;;;;;19.38;55.11;100285.70;659108;1277;140614;-89
2022/09/24 16:09:58;;;;;;;184.00;81.00;;;;;;;18.13;58.25;100290.03;659921;1277;140122;-88
2022/09/24 16:25:01;;;;;;;89.00;40.30;;;;;;;17.13;61.01;100287.36;658542;1277;141226;-88
2022/09/24 16:40:06;;;;;;;106.00;57.40;;;;;;;16.18;63.31;100292.59;659491;1277;140491;-87
2022/09/24 16:55:10;;;;;;;121.10;49.70;;;;;;;15.70;65.95;100292.80;658958;1277;139705;-86
2022/09/24 17:10:16;;;;;;;63.10;33.50;;;;;;;15.36;68.21;100296.25;661583;1277;140236;-87
2022/09/24 17:25:20;;;;;;;171.80;82.00;;;;;;;14.89;69.50;100290.37;660821;1276;139759;-89
2022/09/24 17:40:25;;;;;;;191.20;80.00;;;;;;;14.48;71.25;100286.20;659989;1277;139735;-87
2022/09/24 17:55:30;;;;;;;127.70;58.50;;;;;;;14.18;73.76;100298.02;661371;1276;141317;-88
2022/09/24 18:10:35;;;;;;;147.50;55.70;;;;;;;13.92;75.64;100299.85;659811;1279;139997;-88
2022/09/24 18:25:38;;;;;;;70.90;34.10;;;;;;;13.65;76.40;100309.90;659827;1277;139561;-88
2022/09/24 18:40:41;;;;;;;137.60;57.00;;;;;;;13.27;77.88;100312.77;661092;1277;140733;-87
2022/09/24 18:55:46;;;;;;;148.10;63.10;;;;;;;13.05;79.72;100319.80;661228;1278;143506;-87
2022/09/24 19:10:53;;;;;;;260.60;114.70;;;;;;;12.79;81.16;100326.17;660804;1279;140768;-87
2022/09/24 19:26:01;;;;;;;104.80;54.30;;;;;;;12.63;82.91;100322.34;660869;1277;140519;-87
2022/09/24 19:41:20;;;;;;;132.30;62.10;;;;;;;12.60;83.38;100322.23;657189;1277;140523;-87
2022/09/24 19:56:24;;;;;;;86.30;43.80;;;;;;;12.39;84.54;100326.48;656781;1277;140259;-88
2022/09/24 20:11:31;;;;;;;160.00;68.80;;;;;;;12.32;85.00;100321.06;657307;1277;139926;-87
2022/09/24 20:42:01;;;;;;;189.60;84.70;;;;;;;11.95;86.93;100316.95;657992;1277;139691;-87
2022/09/24 20:57:06;;;;;;;188.80;85.00;;;;;;;11.87;87.82;100307.64;657882;1278;140905;-87
2022/09/24 21:12:09;;;;;;;158.90;77.00;;;;;;;11.76;88.18;100305.55;657648;1278;140627;-87
2022/09/24 21:27:15;;;;;;;133.10;63.20;;;;;;;11.66;89.49;100313.80;657579;1277;140245;-87
2022/09/24 21:42:18;;;;;;;138.80;60.60;;;;;;;11.72;90.11;100321.29;659217;1279;139548;-87
2022/09/24 21:57:23;;;;;;;127.50;58.50;;;;;;;11.62;90.66;100320.63;657624;1277;141025;-86
2022/09/24 22:12:26;;;;;;;144.90;63.60;;;;;;;11.57;91.34;100316.27;658081;1278;140392;-88
2022/09/24 22:27:29;;;;;;;122.80;53.90;;;;;;;11.50;92.05;100319.48;657317;1277;141455;-88
2022/09/24 22:42:33;;;;;;;118.50;50.80;;;;;;;11.39;92.59;100316.46;657380;1278;141065;-87
2022/09/24 22:57:36;;;;;;;104.70;42.80;;;;;;;11.29;93.25;100309.60;658137;1277;141469;-89
2022/09/24 23:12:39;;;;;;;77.50;34.80;;;;;;;11.15;93.33;100302.34;657907;1278;139424;-87
2022/09/24 23:27:42;;;;;;;58.30;30.70;;;;;;;11.13;94.26;100295.82;657338;1277;140332;-87
2022/09/24 23:42:46;;;;;;;39.90;22.30;;;;;;;11.22;94.94;100292.24;656998;1278;1059557;-86
2022/09/24 23:57:50;;;;;;;36.60;19.50;;;;;;;11.24;95.44;100289.98;657871;1278;141129;-88
